Wheeler Army Airfield, HI

2:07 AM HST on March 02, 2015 (GMT -1000)
GTA - South Range | Change Station
CLOSE
Current Station
Personal Weather Station
Location: Wahiaw%u0101, HI
Elevation: 881 ft
Nearby Weather Stations

Elev 881 ft 21.48 °N, 158.06 °W | Updated 3 minutes ago

Clear
Clear
66.1 °F
Feels Like 66.1 °F
N
8.0
Wind Variable Wind from North
Gusts 12.0 mph

Today
High -- | Low -- °F
--% Chance of Precip.
Yesterday
High -- | Low -- °F
Precip. -- in
6:51 AM 6:36 PM
Waxing Gibbous, 91% visible
Pressure 29.99 in
Visibility 10.0 miles
Clouds Clear
Dew Point 64 °F
Humidity 94%
Rainfall 0.00 in
Snow Depth Not available.
UV 0 out of 12
Pollen Not available.
Air Quality Not available.
Flu Activity Not available.
METAR PHHI 021158Z AUTO 32008KT 10SM CLR 20/18 A3001 RMK AO2 SLP153 60000 T01970178 10212 20197 58015 $

More Conditions Fewer Conditions

Pressure 29.99 in
Visibility 10.0 miles
Clouds Clear
Dew Point 64 °F
Humidity 94%
Rainfall 0.00 in
Snow Depth Not available.
UV 0 out of 12
Pollen Not available.
Air Quality Not available.
Flu Activity Not available.
METAR PHHI 021158Z AUTO 32008KT 10SM CLR 20/18 A3001 RMK AO2 SLP153 60000 T01970178 10212 20197 58015 $

More Conditions Fewer Conditions

10-Day Weather Forecast

Almanac

Astronomy

Mar. 02, 2015 Rise Set
Actual Time
Civil Twilight
Nautical Twilight
Astronomical Twilight
Moon
Length of Visible Light
Length of Day
Tomorrow will be .
, % of the Moon is Illuminated

Today's Extremes

State Highs State Lows

Community

WunderPhotos

Upload Photos

1,801,761 photos uploaded!

WunderBlogs® & News

Nearby

Air Quality

  Air Quality AQ Index Pollutant
Not available.

Snow Depth

Station Depth Elevation

Earthquake Activity

City Distance Mag. Time & Date
Minimum magnitude displayed is 2.5.

Coastal Water Temperatures

Place Temperature

Nearby Weather Stations